Pagrindinis puslapis
METAR-TAF:

METAR-TAF

Oro uostai :

Odesa, Ukraina

platuma: 46-26N, ilguma: 030-46E, Aukštis: 42 m

Dabartinis oras

Ataskaita buvo paskelbta 14 minutes, ne 10:00 UTC
Vėjas 4 kt iš Pietvakarių, svyruoja nuo Pietų ir Vakarų
Temperatūra 13°C
Drėgmė 54%
Slėgis 1026 hPa
Matomumas 10 km arba daugiau
Su prošvaistėmis ne aukštis 4000 ft

METAR: UKOO 271000Z 23002MPS 180V270 9999 BKN040 13/04 Q1026 R16/090095 NOSIG

Laikas: 13:14 (10:14 UTC)

Prognozė

Ataskaita buvo paskelbta 5 valandos ir 9 minutes, ne 05:05 UTC
Prognozė galioja nuo 27 metu 06 UTC su 28 metu 06 UTC
Vėjas 6 kt iš Pietų
Matomumas: 6000 m
Išsisklaidę debesys ne aukštis 3000 ft
Tapsmas
nuo 27 metu 18 UTC su 27 metu 19 UTC
Vėjas 6 kt iš Vakarų/Pietvakarių
Tapsmas
nuo 28 metu 00 UTC su 28 metu 01 UTC
Vėjas 6 kt iš Šiaurės/Šiaurės Vakarų

TAF: UKOO 270505Z 2706/2806 18003MPS 6000 SCT030 TX14/2712Z TN04/2802Z BECMG 2718/2719 25003MPS BECMG 2800/2801 34003MPS

Orai ataskaitas ir orų prognozės (METAR, TAF).

turimą stotys yra geltonos ir raudonos taškus žemėlapyje.

Perkelti pele per norėdami pamatyti stoties vardą.

Tada spustelėkite, norėdami matyti oro stebėjimo ir prognozės.

Norėdami pakeisti žemėlapį: spustelėkite ant žalios mygtukų su juodo kryžiaus žemyn,; žalią mygtuką su brūkšneliu, jei norite nutolinti; arba žalių rodyklių gretimoms žemėlapius.


METAR-TAF: